sensor_id;sensor_type;location;lat;lon;timestamp;P1;durP1;ratioP1;P2;durP2;ratioP2
32872;SDS011;19224;52.462;16.898;2023-03-04T00:01:54;29.37;;;15.10;;
32872;SDS011;19224;52.462;16.898;2023-03-04T00:04:25;27.75;;;14.95;;
32872;SDS011;19224;52.462;16.898;2023-03-04T00:06:55;27.75;;;15.58;;
32872;SDS011;19224;52.462;16.898;2023-03-04T00:09:27;28.27;;;13.95;;
32872;SDS011;19224;52.462;16.898;2023-03-04T00:11:58;27.77;;;14.33;;
32872;SDS011;19224;52.462;16.898;2023-03-04T00:14:33;28.27;;;14.23;;
32872;SDS011;19224;52.462;16.898;2023-03-04T00:17:06;27.05;;;14.87;;
32872;SDS011;19224;52.462;16.898;2023-03-04T00:19:37;24.35;;;13.25;;
32872;SDS011;19224;52.462;16.898;2023-03-04T00:22:08;29.82;;;14.45;;
32872;SDS011;19224;52.462;16.898;2023-03-04T00:24:40;26.87;;;14.40;;
32872;SDS011;19224;52.462;16.898;2023-03-04T00:27:11;28.17;;;14.87;;
32872;SDS011;19224;52.462;16.898;2023-03-04T00:29:42;27.53;;;14.00;;
32872;SDS011;19224;52.462;16.898;2023-03-04T00:32:13;26.50;;;14.65;;
32872;SDS011;19224;52.462;16.898;2023-03-04T00:34:44;27.87;;;14.58;;
32872;SDS011;19224;52.462;16.898;2023-03-04T00:37:15;27.80;;;14.90;;
32872;SDS011;19224;52.462;16.898;2023-03-04T00:39:46;25.15;;;13.30;;
32872;SDS011;19224;52.462;16.898;2023-03-04T00:42:17;25.87;;;13.63;;
32872;SDS011;19224;52.462;16.898;2023-03-04T00:44:47;26.82;;;14.23;;
32872;SDS011;19224;52.462;16.898;2023-03-04T00:47:21;28.20;;;13.63;;
32872;SDS011;19224;52.462;16.898;2023-03-04T00:49:52;24.93;;;13.47;;
32872;SDS011;19224;52.462;16.898;2023-03-04T00:52:22;28.73;;;14.10;;
32872;SDS011;19224;52.462;16.898;2023-03-04T00:54:55;27.90;;;13.58;;
32872;SDS011;19224;52.462;16.898;2023-03-04T00:57:28;27.83;;;14.23;;
32872;SDS011;19224;52.462;16.898;2023-03-04T01:00:03;24.37;;;12.82;;
32872;SDS011;19224;52.462;16.898;2023-03-04T01:02:40;25.55;;;13.98;;
32872;SDS011;19224;52.462;16.898;2023-03-04T01:05:12;27.45;;;13.22;;
32872;SDS011;19224;52.462;16.898;2023-03-04T01:07:43;26.63;;;13.17;;
32872;SDS011;19224;52.462;16.898;2023-03-04T01:10:14;24.27;;;12.93;;
32872;SDS011;19224;52.462;16.898;2023-03-04T01:12:47;26.57;;;12.40;;
32872;SDS011;19224;52.462;16.898;2023-03-04T01:15:20;21.13;;;11.83;;
32872;SDS011;19224;52.462;16.898;2023-03-04T01:17:51;23.50;;;12.28;;
32872;SDS011;19224;52.462;16.898;2023-03-04T01:20:27;20.68;;;11.97;;
32872;SDS011;19224;52.462;16.898;2023-03-04T01:22:53;21.80;;;11.73;;
32872;SDS011;19224;52.462;16.898;2023-03-04T01:25:24;22.98;;;11.97;;
32872;SDS011;19224;52.462;16.898;2023-03-04T01:27:55;20.08;;;11.35;;
32872;SDS011;19224;52.462;16.898;2023-03-04T01:30:27;22.03;;;12.50;;
32872;SDS011;19224;52.462;16.898;2023-03-04T01:32:59;23.47;;;11.95;;
32872;SDS011;19224;52.462;16.898;2023-03-04T01:35:31;25.17;;;12.40;;
32872;SDS011;19224;52.462;16.898;2023-03-04T01:38:01;22.57;;;11.80;;
32872;SDS011;19224;52.462;16.898;2023-03-04T01:40:32;22.27;;;11.63;;
32872;SDS011;19224;52.462;16.898;2023-03-04T01:43:03;20.77;;;11.53;;
32872;SDS011;19224;52.462;16.898;2023-03-04T01:45:35;19.70;;;11.05;;
32872;SDS011;19224;52.462;16.898;2023-03-04T01:48:07;19.50;;;10.77;;
32872;SDS011;19224;52.462;16.898;2023-03-04T01:50:40;20.37;;;12.00;;
32872;SDS011;19224;52.462;16.898;2023-03-04T01:53:19;20.70;;;11.83;;
32872;SDS011;19224;52.462;16.898;2023-03-04T01:55:52;22.20;;;11.88;;
32872;SDS011;19224;52.462;16.898;2023-03-04T01:58:27;23.10;;;11.93;;
32872;SDS011;19224;52.462;16.898;2023-03-04T02:01:05;18.80;;;10.97;;
32872;SDS011;19224;52.462;16.898;2023-03-04T02:03:35;21.93;;;11.68;;
32872;SDS011;19224;52.462;16.898;2023-03-04T02:06:06;20.60;;;11.78;;
32872;SDS011;19224;52.462;16.898;2023-03-04T02:08:37;23.42;;;11.43;;
32872;SDS011;19224;52.462;16.898;2023-03-04T02:11:09;23.30;;;11.60;;
32872;SDS011;19224;52.462;16.898;2023-03-04T02:13:42;24.37;;;11.95;;
32872;SDS011;19224;52.462;16.898;2023-03-04T02:16:15;20.05;;;10.90;;
32872;SDS011;19224;52.462;16.898;2023-03-04T02:18:46;20.00;;;10.93;;
32872;SDS011;19224;52.462;16.898;2023-03-04T02:21:25;22.00;;;12.45;;
32872;SDS011;19224;52.462;16.898;2023-03-04T02:24:09;18.77;;;10.73;;
32872;SDS011;19224;52.462;16.898;2023-03-04T02:26:53;22.13;;;10.67;;
32872;SDS011;19224;52.462;16.898;2023-03-04T02:29:23;21.20;;;11.37;;
32872;SDS011;19224;52.462;16.898;2023-03-04T02:32:01;20.00;;;10.60;;
32872;SDS011;19224;52.462;16.898;2023-03-04T02:34:31;22.93;;;11.50;;
32872;SDS011;19224;52.462;16.898;2023-03-04T02:37:17;19.32;;;10.25;;
32872;SDS011;19224;52.462;16.898;2023-03-04T02:39:50;18.57;;;10.80;;
32872;SDS011;19224;52.462;16.898;2023-03-04T02:42:21;19.55;;;11.20;;
32872;SDS011;19224;52.462;16.898;2023-03-04T02:44:59;18.27;;;11.30;;
32872;SDS011;19224;52.462;16.898;2023-03-04T02:47:33;18.77;;;10.77;;
32872;SDS011;19224;52.462;16.898;2023-03-04T02:50:05;19.57;;;11.00;;
32872;SDS011;19224;52.462;16.898;2023-03-04T02:52:39;20.23;;;10.72;;
32872;SDS011;19224;52.462;16.898;2023-03-04T02:55:11;23.67;;;11.47;;
32872;SDS011;19224;52.462;16.898;2023-03-04T02:57:43;20.20;;;10.90;;
32872;SDS011;19224;52.462;16.898;2023-03-04T03:00:14;22.97;;;11.20;;
32872;SDS011;19224;52.462;16.898;2023-03-04T03:02:49;19.85;;;10.55;;
32872;SDS011;19224;52.462;16.898;2023-03-04T03:05:29;17.77;;;9.73;;
32872;SDS011;19224;52.462;16.898;2023-03-04T03:08:04;26.40;;;10.70;;
32872;SDS011;19224;52.462;16.898;2023-03-04T03:10:35;19.17;;;9.15;;
32872;SDS011;19224;52.462;16.898;2023-03-04T03:13:06;19.60;;;10.20;;
32872;SDS011;19224;52.462;16.898;2023-03-04T03:15:37;20.63;;;9.90;;
32872;SDS011;19224;52.462;16.898;2023-03-04T03:18:10;18.37;;;9.60;;
32872;SDS011;19224;52.462;16.898;2023-03-04T03:20:41;18.77;;;9.38;;
32872;SDS011;19224;52.462;16.898;2023-03-04T03:23:14;21.12;;;8.03;;
32872;SDS011;19224;52.462;16.898;2023-03-04T03:25:47;19.30;;;9.27;;
32872;SDS011;19224;52.462;16.898;2023-03-04T03:28:20;19.40;;;10.20;;
32872;SDS011;19224;52.462;16.898;2023-03-04T03:30:53;18.10;;;9.20;;
32872;SDS011;19224;52.462;16.898;2023-03-04T03:33:28;20.32;;;9.50;;
32872;SDS011;19224;52.462;16.898;2023-03-04T03:35:59;20.30;;;9.25;;
32872;SDS011;19224;52.462;16.898;2023-03-04T03:38:29;14.58;;;8.70;;
32872;SDS011;19224;52.462;16.898;2023-03-04T03:41:00;18.25;;;9.43;;
32872;SDS011;19224;52.462;16.898;2023-03-04T03:43:30;16.23;;;8.33;;
32872;SDS011;19224;52.462;16.898;2023-03-04T03:46:07;19.42;;;9.15;;
32872;SDS011;19224;52.462;16.898;2023-03-04T03:48:39;19.35;;;8.95;;
32872;SDS011;19224;52.462;16.898;2023-03-04T03:51:09;19.30;;;8.90;;
32872;SDS011;19224;52.462;16.898;2023-03-04T03:53:40;17.05;;;8.63;;
32872;SDS011;19224;52.462;16.898;2023-03-04T03:56:10;20.55;;;9.93;;
32872;SDS011;19224;52.462;16.898;2023-03-04T03:58:41;15.18;;;8.50;;
32872;SDS011;19224;52.462;16.898;2023-03-04T04:01:14;21.33;;;9.83;;
32872;SDS011;19224;52.462;16.898;2023-03-04T04:03:49;15.78;;;8.23;;
32872;SDS011;19224;52.462;16.898;2023-03-04T04:06:21;17.07;;;8.53;;
32872;SDS011;19224;52.462;16.898;2023-03-04T04:08:53;23.57;;;9.43;;
32872;SDS011;19224;52.462;16.898;2023-03-04T04:11:24;18.45;;;8.35;;
32872;SDS011;19224;52.462;16.898;2023-03-04T04:13:55;19.80;;;9.45;;
32872;SDS011;19224;52.462;16.898;2023-03-04T04:16:26;21.23;;;9.53;;
32872;SDS011;19224;52.462;16.898;2023-03-04T04:18:57;20.77;;;8.98;;
32872;SDS011;19224;52.462;16.898;2023-03-04T04:21:27;16.05;;;8.30;;
32872;SDS011;19224;52.462;16.898;2023-03-04T04:23:58;19.05;;;9.30;;
32872;SDS011;19224;52.462;16.898;2023-03-04T04:26:28;20.57;;;9.60;;
32872;SDS011;19224;52.462;16.898;2023-03-04T04:28:59;17.65;;;9.83;;
32872;SDS011;19224;52.462;16.898;2023-03-04T04:31:31;18.23;;;9.30;;
32872;SDS011;19224;52.462;16.898;2023-03-04T04:34:07;21.15;;;9.85;;
32872;SDS011;19224;52.462;16.898;2023-03-04T04:36:38;18.82;;;9.35;;
32872;SDS011;19224;52.462;16.898;2023-03-04T04:39:10;17.82;;;8.55;;
32872;SDS011;19224;52.462;16.898;2023-03-04T04:41:51;14.93;;;8.05;;
32872;SDS011;19224;52.462;16.898;2023-03-04T04:44:22;17.82;;;8.48;;
32872;SDS011;19224;52.462;16.898;2023-03-04T04:46:52;21.97;;;8.63;;
32872;SDS011;19224;52.462;16.898;2023-03-04T04:49:23;18.12;;;8.10;;
32872;SDS011;19224;52.462;16.898;2023-03-04T04:51:55;18.20;;;9.03;;
32872;SDS011;19224;52.462;16.898;2023-03-04T04:54:28;18.43;;;9.07;;
32872;SDS011;19224;52.462;16.898;2023-03-04T04:56:58;18.77;;;8.40;;
32872;SDS011;19224;52.462;16.898;2023-03-04T04:59:30;18.43;;;8.13;;
32872;SDS011;19224;52.462;16.898;2023-03-04T05:02:02;18.75;;;8.15;;
32872;SDS011;19224;52.462;16.898;2023-03-04T05:04:33;16.67;;;8.60;;
32872;SDS011;19224;52.462;16.898;2023-03-04T05:07:08;19.98;;;9.15;;
32872;SDS011;19224;52.462;16.898;2023-03-04T05:09:38;19.77;;;8.63;;
32872;SDS011;19224;52.462;16.898;2023-03-04T05:12:09;18.00;;;7.65;;
32872;SDS011;19224;52.462;16.898;2023-03-04T05:14:40;17.65;;;8.15;;
32872;SDS011;19224;52.462;16.898;2023-03-04T05:17:11;14.65;;;7.72;;
32872;SDS011;19224;52.462;16.898;2023-03-04T05:19:42;16.95;;;7.53;;
32872;SDS011;19224;52.462;16.898;2023-03-04T05:22:16;16.07;;;7.28;;
32872;SDS011;19224;52.462;16.898;2023-03-04T05:24:47;21.87;;;8.45;;
32872;SDS011;19224;52.462;16.898;2023-03-04T05:27:18;22.93;;;8.63;;
32872;SDS011;19224;52.462;16.898;2023-03-04T05:29:48;19.45;;;7.97;;
32872;SDS011;19224;52.462;16.898;2023-03-04T05:32:22;21.90;;;7.75;;
32872;SDS011;19224;52.462;16.898;2023-03-04T05:34:52;22.30;;;8.10;;
32872;SDS011;19224;52.462;16.898;2023-03-04T05:37:24;17.57;;;7.58;;
32872;SDS011;19224;52.462;16.898;2023-03-04T05:40:01;17.07;;;7.33;;
32872;SDS011;19224;52.462;16.898;2023-03-04T05:42:54;18.17;;;7.45;;
32872;SDS011;19224;52.462;16.898;2023-03-04T05:45:28;17.10;;;8.27;;
32872;SDS011;19224;52.462;16.898;2023-03-04T05:47:59;22.20;;;8.13;;
32872;SDS011;19224;52.462;16.898;2023-03-04T05:50:33;18.55;;;7.58;;
32872;SDS011;19224;52.462;16.898;2023-03-04T05:53:04;19.77;;;7.53;;
32872;SDS011;19224;52.462;16.898;2023-03-04T05:55:38;19.95;;;7.65;;
32872;SDS011;19224;52.462;16.898;2023-03-04T05:58:14;15.93;;;7.00;;
32872;SDS011;19224;52.462;16.898;2023-03-04T06:00:49;18.62;;;7.12;;
32872;SDS011;19224;52.462;16.898;2023-03-04T06:03:29;19.37;;;7.40;;
32872;SDS011;19224;52.462;16.898;2023-03-04T06:05:57;15.28;;;7.33;;
32872;SDS011;19224;52.462;16.898;2023-03-04T06:08:32;15.88;;;7.03;;
32872;SDS011;19224;52.462;16.898;2023-03-04T06:11:05;19.27;;;8.28;;
32872;SDS011;19224;52.462;16.898;2023-03-04T06:13:36;18.17;;;7.35;;
32872;SDS011;19224;52.462;16.898;2023-03-04T06:16:08;19.90;;;7.62;;
32872;SDS011;19224;52.462;16.898;2023-03-04T06:18:38;19.87;;;7.80;;
32872;SDS011;19224;52.462;16.898;2023-03-04T06:21:09;16.93;;;7.00;;
32872;SDS011;19224;52.462;16.898;2023-03-04T06:23:43;15.63;;;6.13;;
32872;SDS011;19224;52.462;16.898;2023-03-04T06:26:13;17.67;;;7.20;;
32872;SDS011;19224;52.462;16.898;2023-03-04T06:28:45;20.17;;;7.07;;
32872;SDS011;19224;52.462;16.898;2023-03-04T06:31:18;22.42;;;7.50;;
32872;SDS011;19224;52.462;16.898;2023-03-04T06:33:53;13.45;;;6.67;;
32872;SDS011;19224;52.462;16.898;2023-03-04T06:36:23;16.97;;;6.65;;
32872;SDS011;19224;52.462;16.898;2023-03-04T06:38:54;21.07;;;7.23;;
32872;SDS011;19224;52.462;16.898;2023-03-04T06:41:52;18.20;;;6.63;;
32872;SDS011;19224;52.462;16.898;2023-03-04T06:44:30;20.43;;;6.55;;
32872;SDS011;19224;52.462;16.898;2023-03-04T06:46:59;24.03;;;7.33;;
32872;SDS011;19224;52.462;16.898;2023-03-04T06:49:36;14.75;;;6.40;;
32872;SDS011;19224;52.462;16.898;2023-03-04T06:52:10;18.48;;;6.95;;
32872;SDS011;19224;52.462;16.898;2023-03-04T06:54:39;19.27;;;6.65;;
32872;SDS011;19224;52.462;16.898;2023-03-04T06:57:10;17.33;;;7.23;;
32872;SDS011;19224;52.462;16.898;2023-03-04T06:59:42;17.62;;;7.28;;
32872;SDS011;19224;52.462;16.898;2023-03-04T07:02:19;21.00;;;6.58;;
32872;SDS011;19224;52.462;16.898;2023-03-04T07:04:46;15.85;;;6.83;;
32872;SDS011;19224;52.462;16.898;2023-03-04T07:07:17;20.02;;;6.90;;
32872;SDS011;19224;52.462;16.898;2023-03-04T07:09:55;18.15;;;6.87;;
32872;SDS011;19224;52.462;16.898;2023-03-04T07:12:30;20.75;;;6.78;;
32872;SDS011;19224;52.462;16.898;2023-03-04T07:15:04;24.30;;;6.42;;
32872;SDS011;19224;52.462;16.898;2023-03-04T07:17:36;19.02;;;7.00;;
32872;SDS011;19224;52.462;16.898;2023-03-04T07:20:08;18.92;;;6.10;;
32872;SDS011;19224;52.462;16.898;2023-03-04T07:22:46;17.95;;;6.50;;
32872;SDS011;19224;52.462;16.898;2023-03-04T07:25:17;17.87;;;6.75;;
32872;SDS011;19224;52.462;16.898;2023-03-04T07:27:52;21.97;;;6.42;;
32872;SDS011;19224;52.462;16.898;2023-03-04T07:30:23;20.43;;;6.90;;
32872;SDS011;19224;52.462;16.898;2023-03-04T07:33:00;14.63;;;6.05;;
32872;SDS011;19224;52.462;16.898;2023-03-04T07:35:29;19.23;;;6.45;;
32872;SDS011;19224;52.462;16.898;2023-03-04T07:38:01;12.80;;;5.83;;
32872;SDS011;19224;52.462;16.898;2023-03-04T07:40:31;18.20;;;6.10;;
32872;SDS011;19224;52.462;16.898;2023-03-04T07:43:05;15.35;;;6.15;;
32872;SDS011;19224;52.462;16.898;2023-03-04T07:45:35;20.70;;;6.90;;
32872;SDS011;19224;52.462;16.898;2023-03-04T07:48:10;18.10;;;6.58;;
32872;SDS011;19224;52.462;16.898;2023-03-04T07:50:42;17.32;;;5.42;;
32872;SDS011;19224;52.462;16.898;2023-03-04T07:53:15;18.05;;;6.87;;
32872;SDS011;19224;52.462;16.898;2023-03-04T07:55:47;14.70;;;5.12;;
32872;SDS011;19224;52.462;16.898;2023-03-04T07:58:19;21.35;;;6.10;;
32872;SDS011;19224;52.462;16.898;2023-03-04T08:00:55;12.85;;;5.45;;
32872;SDS011;19224;52.462;16.898;2023-03-04T08:03:26;18.07;;;5.83;;
32872;SDS011;19224;52.462;16.898;2023-03-04T08:06:03;13.68;;;5.30;;
32872;SDS011;19224;52.462;16.898;2023-03-04T08:08:36;18.00;;;6.10;;
32872;SDS011;19224;52.462;16.898;2023-03-04T08:11:11;17.15;;;5.95;;
32872;SDS011;19224;52.462;16.898;2023-03-04T08:13:49;15.15;;;5.47;;
32872;SDS011;19224;52.462;16.898;2023-03-04T08:16:17;17.52;;;6.17;;
32872;SDS011;19224;52.462;16.898;2023-03-04T08:18:59;19.32;;;7.45;;
32872;SDS011;19224;52.462;16.898;2023-03-04T08:21:27;13.80;;;5.47;;
32872;SDS011;19224;52.462;16.898;2023-03-04T08:24:04;17.20;;;5.72;;
32872;SDS011;19224;52.462;16.898;2023-03-04T08:26:34;18.67;;;5.12;;
32872;SDS011;19224;52.462;16.898;2023-03-04T08:29:17;14.33;;;5.03;;
32872;SDS011;19224;52.462;16.898;2023-03-04T08:31:50;14.58;;;4.90;;
32872;SDS011;19224;52.462;16.898;2023-03-04T08:34:24;16.60;;;5.20;;
32872;SDS011;19224;52.462;16.898;2023-03-04T08:37:00;11.65;;;5.20;;
32872;SDS011;19224;52.462;16.898;2023-03-04T08:39:31;16.32;;;5.50;;
32872;SDS011;19224;52.462;16.898;2023-03-04T08:42:04;13.48;;;5.10;;
32872;SDS011;19224;52.462;16.898;2023-03-04T08:44:35;16.85;;;5.22;;
32872;SDS011;19224;52.462;16.898;2023-03-04T08:47:05;15.00;;;4.92;;
32872;SDS011;19224;52.462;16.898;2023-03-04T08:49:37;15.00;;;5.62;;
32872;SDS011;19224;52.462;16.898;2023-03-04T08:52:09;22.65;;;5.47;;
32872;SDS011;19224;52.462;16.898;2023-03-04T08:54:41;17.95;;;5.03;;
32872;SDS011;19224;52.462;16.898;2023-03-04T08:57:14;18.25;;;5.75;;
32872;SDS011;19224;52.462;16.898;2023-03-04T08:59:46;14.45;;;5.10;;
32872;SDS011;19224;52.462;16.898;2023-03-04T09:02:16;13.05;;;5.22;;
32872;SDS011;19224;52.462;16.898;2023-03-04T09:04:50;16.95;;;5.47;;
32872;SDS011;19224;52.462;16.898;2023-03-04T09:07:23;15.35;;;5.50;;
32872;SDS011;19224;52.462;16.898;2023-03-04T09:09:53;13.10;;;4.92;;
32872;SDS011;19224;52.462;16.898;2023-03-04T09:12:23;15.50;;;5.20;;
32872;SDS011;19224;52.462;16.898;2023-03-04T09:14:54;12.03;;;4.10;;
32872;SDS011;19224;52.462;16.898;2023-03-04T09:17:26;22.05;;;6.60;;
32872;SDS011;19224;52.462;16.898;2023-03-04T09:19:58;13.55;;;4.92;;
32872;SDS011;19224;52.462;16.898;2023-03-04T09:22:29;12.53;;;4.50;;
32872;SDS011;19224;52.462;16.898;2023-03-04T09:25:00;14.47;;;5.33;;
32872;SDS011;19224;52.462;16.898;2023-03-04T09:27:31;12.50;;;5.05;;
32872;SDS011;19224;52.462;16.898;2023-03-04T09:30:07;11.75;;;4.42;;
32872;SDS011;19224;52.462;16.898;2023-03-04T09:32:38;28.20;;;8.68;;
32872;SDS011;19224;52.462;16.898;2023-03-04T09:35:09;18.05;;;5.25;;
32872;SDS011;19224;52.462;16.898;2023-03-04T09:37:40;19.50;;;5.95;;
32872;SDS011;19224;52.462;16.898;2023-03-04T09:40:22;13.05;;;5.55;;
32872;SDS011;19224;52.462;16.898;2023-03-04T09:42:52;11.20;;;3.40;;
32872;SDS011;19224;52.462;16.898;2023-03-04T09:45:28;6.87;;;3.37;;
32872;SDS011;19224;52.462;16.898;2023-03-04T09:48:06;12.00;;;3.60;;
32872;SDS011;19224;52.462;16.898;2023-03-04T09:50:41;5.33;;;2.70;;
32872;SDS011;19224;52.462;16.898;2023-03-04T09:53:20;7.33;;;3.12;;
32872;SDS011;19224;52.462;16.898;2023-03-04T09:56:03;8.28;;;2.92;;
32872;SDS011;19224;52.462;16.898;2023-03-04T09:58:56;5.20;;;3.02;;
32872;SDS011;19224;52.462;16.898;2023-03-04T10:01:55;7.72;;;3.58;;
32872;SDS011;19224;52.462;16.898;2023-03-04T10:04:39;10.78;;;4.25;;
32872;SDS011;19224;52.462;16.898;2023-03-04T10:07:18;7.08;;;3.20;;
32872;SDS011;19224;52.462;16.898;2023-03-04T10:12:29;13.30;;;4.62;;
32872;SDS011;19224;52.462;16.898;2023-03-04T10:15:03;9.68;;;3.58;;
32872;SDS011;19224;52.462;16.898;2023-03-04T10:18:00;6.30;;;3.40;;
32872;SDS011;19224;52.462;16.898;2023-03-04T10:20:40;6.47;;;3.30;;
32872;SDS011;19224;52.462;16.898;2023-03-04T10:23:21;6.12;;;3.08;;
32872;SDS011;19224;52.462;16.898;2023-03-04T10:25:58;7.28;;;3.58;;
32872;SDS011;19224;52.462;16.898;2023-03-04T10:28:31;8.28;;;3.35;;
32872;SDS011;19224;52.462;16.898;2023-03-04T10:34:08;6.45;;;3.05;;
32872;SDS011;19224;52.462;16.898;2023-03-04T10:36:57;8.20;;;3.62;;
32872;SDS011;19224;52.462;16.898;2023-03-04T10:39:38;6.75;;;2.70;;
32872;SDS011;19224;52.462;16.898;2023-03-04T10:44:55;5.47;;;2.92;;
32872;SDS011;19224;52.462;16.898;2023-03-04T10:47:28;4.67;;;2.55;;
32872;SDS011;19224;52.462;16.898;2023-03-04T10:50:03;6.42;;;2.55;;
32872;SDS011;19224;52.462;16.898;2023-03-04T10:52:37;7.47;;;2.83;;
32872;SDS011;19224;52.462;16.898;2023-03-04T10:55:17;6.80;;;2.70;;
32872;SDS011;19224;52.462;16.898;2023-03-04T10:58:04;4.67;;;3.12;;
32872;SDS011;19224;52.462;16.898;2023-03-04T11:00:38;9.20;;;4.75;;
32872;SDS011;19224;52.462;16.898;2023-03-04T11:03:28;5.50;;;3.10;;
32872;SDS011;19224;52.462;16.898;2023-03-04T11:06:15;15.45;;;7.60;;
32872;SDS011;19224;52.462;16.898;2023-03-04T11:08:59;7.03;;;4.05;;
32872;SDS011;19224;52.462;16.898;2023-03-04T11:11:41;6.45;;;2.58;;
32872;SDS011;19224;52.462;16.898;2023-03-04T11:14:18;5.47;;;2.98;;
32872;SDS011;19224;52.462;16.898;2023-03-04T11:17:01;17.05;;;5.47;;
32872;SDS011;19224;52.462;16.898;2023-03-04T11:19:49;6.62;;;3.15;;
32872;SDS011;19224;52.462;16.898;2023-03-04T11:22:29;10.30;;;2.92;;
32872;SDS011;19224;52.462;16.898;2023-03-04T11:25:07;4.05;;;2.52;;
32872;SDS011;19224;52.462;16.898;2023-03-04T11:27:47;5.17;;;2.80;;
32872;SDS011;19224;52.462;16.898;2023-03-04T11:33:21;6.67;;;3.45;;
32872;SDS011;19224;52.462;16.898;2023-03-04T11:38:57;6.37;;;2.80;;
32872;SDS011;19224;52.462;16.898;2023-03-04T11:41:33;8.88;;;3.70;;
32872;SDS011;19224;52.462;16.898;2023-03-04T11:44:06;8.28;;;3.95;;
32872;SDS011;19224;52.462;16.898;2023-03-04T11:46:51;7.20;;;2.87;;
32872;SDS011;19224;52.462;16.898;2023-03-04T11:53:08;6.87;;;3.05;;
32872;SDS011;19224;52.462;16.898;2023-03-04T11:56:06;8.65;;;3.42;;
32872;SDS011;19224;52.462;16.898;2023-03-04T11:58:46;7.50;;;2.30;;
32872;SDS011;19224;52.462;16.898;2023-03-04T12:01:39;9.90;;;3.58;;
32872;SDS011;19224;52.462;16.898;2023-03-04T12:04:28;9.15;;;2.90;;
32872;SDS011;19224;52.462;16.898;2023-03-04T12:10:20;7.85;;;3.90;;
32872;SDS011;19224;52.462;16.898;2023-03-04T12:16:41;8.65;;;3.60;;
32872;SDS011;19224;52.462;16.898;2023-03-04T12:25:36;7.20;;;3.37;;
32872;SDS011;19224;52.462;16.898;2023-03-04T12:28:42;7.25;;;3.70;;
32872;SDS011;19224;52.462;16.898;2023-03-04T12:31:45;9.30;;;3.40;;
32872;SDS011;19224;52.462;16.898;2023-03-04T12:40:22;12.30;;;3.67;;
32872;SDS011;19224;52.462;16.898;2023-03-04T12:43:06;9.15;;;3.22;;
32872;SDS011;19224;52.462;16.898;2023-03-04T12:45:55;10.05;;;3.40;;
32872;SDS011;19224;52.462;16.898;2023-03-04T12:48:58;9.50;;;3.83;;
32872;SDS011;19224;52.462;16.898;2023-03-04T12:57:18;4.95;;;1.60;;
32872;SDS011;19224;52.462;16.898;2023-03-04T13:03:27;6.12;;;2.27;;
32872;SDS011;19224;52.462;16.898;2023-03-04T13:12:19;4.30;;;1.90;;
32872;SDS011;19224;52.462;16.898;2023-03-04T13:16:00;4.40;;;2.22;;
32872;SDS011;19224;52.462;16.898;2023-03-04T13:17:47;3.00;;;1.57;;
32872;SDS011;19224;52.462;16.898;2023-03-04T13:26:06;4.42;;;1.92;;
32872;SDS011;19224;52.462;16.898;2023-03-04T13:33:49;5.10;;;1.80;;
32872;SDS011;19224;52.462;16.898;2023-03-04T13:36:29;4.25;;;2.02;;
32872;SDS011;19224;52.462;16.898;2023-03-04T13:39:23;8.33;;;2.50;;
32872;SDS011;19224;52.462;16.898;2023-03-04T13:41:56;6.67;;;2.52;;
32872;SDS011;19224;52.462;16.898;2023-03-04T13:44:54;5.35;;;2.40;;
32872;SDS011;19224;52.462;16.898;2023-03-04T13:47:16;8.20;;;3.15;;
32872;SDS011;19224;52.462;16.898;2023-03-04T13:50:13;8.45;;;2.90;;
32872;SDS011;19224;52.462;16.898;2023-03-04T13:52:57;7.85;;;3.27;;
32872;SDS011;19224;52.462;16.898;2023-03-04T13:55:34;7.92;;;2.45;;
32872;SDS011;19224;52.462;16.898;2023-03-04T13:58:22;7.08;;;2.80;;
32872;SDS011;19224;52.462;16.898;2023-03-04T14:00:55;7.85;;;3.40;;
32872;SDS011;19224;52.462;16.898;2023-03-04T14:03:29;7.53;;;3.20;;
32872;SDS011;19224;52.462;16.898;2023-03-04T14:08:54;7.62;;;3.70;;
32872;SDS011;19224;52.462;16.898;2023-03-04T14:11:32;8.03;;;3.08;;
32872;SDS011;19224;52.462;16.898;2023-03-04T14:14:19;7.10;;;2.77;;
32872;SDS011;19224;52.462;16.898;2023-03-04T14:16:55;7.00;;;2.50;;
32872;SDS011;19224;52.462;16.898;2023-03-04T14:19:38;4.25;;;2.52;;
32872;SDS011;19224;52.462;16.898;2023-03-04T14:22:24;7.15;;;2.83;;
32872;SDS011;19224;52.462;16.898;2023-03-04T14:25:22;5.05;;;2.70;;
32872;SDS011;19224;52.462;16.898;2023-03-04T14:28:08;5.08;;;2.35;;
32872;SDS011;19224;52.462;16.898;2023-03-04T14:30:53;4.30;;;1.80;;
32872;SDS011;19224;52.462;16.898;2023-03-04T14:33:30;5.20;;;2.33;;
32872;SDS011;19224;52.462;16.898;2023-03-04T14:36:00;3.87;;;2.17;;
32872;SDS011;19224;52.462;16.898;2023-03-04T14:38:38;13.45;;;4.83;;
32872;SDS011;19224;52.462;16.898;2023-03-04T14:41:14;8.65;;;3.33;;
32872;SDS011;19224;52.462;16.898;2023-03-04T14:46:33;5.35;;;2.62;;
32872;SDS011;19224;52.462;16.898;2023-03-04T14:49:12;5.97;;;2.40;;
32872;SDS011;19224;52.462;16.898;2023-03-04T14:51:46;4.97;;;1.98;;
32872;SDS011;19224;52.462;16.898;2023-03-04T15:00:13;6.00;;;2.35;;
32872;SDS011;19224;52.462;16.898;2023-03-04T15:02:59;7.12;;;3.02;;
32872;SDS011;19224;52.462;16.898;2023-03-04T15:05:34;11.83;;;3.98;;
32872;SDS011;19224;52.462;16.898;2023-03-04T15:11:03;12.20;;;4.03;;
32872;SDS011;19224;52.462;16.898;2023-03-04T15:13:43;10.75;;;4.22;;
32872;SDS011;19224;52.462;16.898;2023-03-04T15:16:23;19.85;;;8.63;;
32872;SDS011;19224;52.462;16.898;2023-03-04T15:19:01;16.55;;;6.30;;
32872;SDS011;19224;52.462;16.898;2023-03-04T15:21:38;11.63;;;4.35;;
32872;SDS011;19224;52.462;16.898;2023-03-04T15:24:09;6.75;;;3.12;;
32872;SDS011;19224;52.462;16.898;2023-03-04T15:26:43;4.50;;;2.35;;
32872;SDS011;19224;52.462;16.898;2023-03-04T15:29:16;6.97;;;2.95;;
32872;SDS011;19224;52.462;16.898;2023-03-04T15:31:49;7.53;;;3.55;;
32872;SDS011;19224;52.462;16.898;2023-03-04T15:34:20;8.40;;;3.80;;
32872;SDS011;19224;52.462;16.898;2023-03-04T15:36:56;9.10;;;3.62;;
32872;SDS011;19224;52.462;16.898;2023-03-04T15:39:31;9.63;;;4.60;;
32872;SDS011;19224;52.462;16.898;2023-03-04T15:42:07;10.63;;;4.17;;
32872;SDS011;19224;52.462;16.898;2023-03-04T15:44:40;8.38;;;3.77;;
32872;SDS011;19224;52.462;16.898;2023-03-04T15:47:11;9.05;;;4.08;;
32872;SDS011;19224;52.462;16.898;2023-03-04T15:49:44;6.87;;;3.72;;
32872;SDS011;19224;52.462;16.898;2023-03-04T15:52:17;11.03;;;4.55;;
32872;SDS011;19224;52.462;16.898;2023-03-04T15:54:53;10.00;;;4.25;;
32872;SDS011;19224;52.462;16.898;2023-03-04T15:57:26;9.23;;;4.08;;
32872;SDS011;19224;52.462;16.898;2023-03-04T15:59:59;8.18;;;4.33;;
32872;SDS011;19224;52.462;16.898;2023-03-04T16:02:31;9.78;;;3.95;;
32872;SDS011;19224;52.462;16.898;2023-03-04T16:05:07;9.00;;;4.33;;
32872;SDS011;19224;52.462;16.898;2023-03-04T16:07:41;8.83;;;4.62;;
32872;SDS011;19224;52.462;16.898;2023-03-04T16:10:24;15.72;;;5.20;;
32872;SDS011;19224;52.462;16.898;2023-03-04T16:13:00;11.70;;;4.60;;
32872;SDS011;19224;52.462;16.898;2023-03-04T16:15:30;8.73;;;4.35;;
32872;SDS011;19224;52.462;16.898;2023-03-04T16:18:01;7.78;;;4.33;;
32872;SDS011;19224;52.462;16.898;2023-03-04T16:20:40;9.23;;;5.10;;
32872;SDS011;19224;52.462;16.898;2023-03-04T16:23:19;14.70;;;6.10;;
32872;SDS011;19224;52.462;16.898;2023-03-04T16:25:50;13.05;;;6.15;;
32872;SDS011;19224;52.462;16.898;2023-03-04T16:28:26;11.45;;;5.10;;